Terminal Aerodrome Forecast
Issued by NWS Sioux Falls, SD

Home | Current Version | Previous Version | Text Only | Print | Product List | Glossary On
Versions: 1 2 3 4 5 6 7 8 9 10 11 12 13 14 15 16 17 18 19 20 21 22 23 24
377
FTUS43 KFSD 201122
TAFSUX
TAF
KSUX 201122Z 2012/2112 31010KT P6SM FEW200
     FM202100 27006KT P6SM SKC
     FM202300 15004KT P6SM SKC
     FM210400 10004KT P6SM SKC=

USA.gov is the U.S. government's official web portal to all federal, state and local government web resources and services.